sensor_id;sensor_type;location;lat;lon;timestamp;temperature;humidity
843;DHT22;407;48.884;9.126;2023-05-10T00:00:56;14.30;7.70
843;DHT22;407;48.884;9.126;2023-05-10T00:03:22;14.20;3.20
843;DHT22;407;48.884;9.126;2023-05-10T00:05:48;14.00;1.00
843;DHT22;407;48.884;9.126;2023-05-10T00:08:13;13.90;1.00
843;DHT22;407;48.884;9.126;2023-05-10T00:10:39;13.90;7.70
843;DHT22;407;48.884;9.126;2023-05-10T00:13:06;15.40;8.00
843;DHT22;407;48.884;9.126;2023-05-10T00:15:32;13.80;12.50
843;DHT22;407;48.884;9.126;2023-05-10T00:17:57;13.90;8.50
843;DHT22;407;48.884;9.126;2023-05-10T00:20:23;13.90;11.80
843;DHT22;407;48.884;9.126;2023-05-10T00:22:48;13.80;3.30
843;DHT22;407;48.884;9.126;2023-05-10T00:25:14;13.80;17.20
843;DHT22;407;48.884;9.126;2023-05-10T00:27:40;13.70;5.60
843;DHT22;407;48.884;9.126;2023-05-10T00:30:06;13.70;15.10
843;DHT22;407;48.884;9.126;2023-05-10T00:32:32;13.60;3.90
843;DHT22;407;48.884;9.126;2023-05-10T00:34:57;13.50;10.70
843;DHT22;407;48.884;9.126;2023-05-10T00:37:23;13.60;15.20
843;DHT22;407;48.884;9.126;2023-05-10T00:39:49;13.60;20.60
843;DHT22;407;48.884;9.126;2023-05-10T00:42:14;13.60;23.60
843;DHT22;407;48.884;9.126;2023-05-10T00:44:40;13.50;30.40
843;DHT22;407;48.884;9.126;2023-05-10T00:47:06;13.50;22.60
843;DHT22;407;48.884;9.126;2023-05-10T00:49:32;13.60;27.90
843;DHT22;407;48.884;9.126;2023-05-10T00:51:58;13.50;42.50
843;DHT22;407;48.884;9.126;2023-05-10T00:54:23;13.60;37.80
843;DHT22;407;48.884;9.126;2023-05-10T00:56:49;13.50;46.70
843;DHT22;407;48.884;9.126;2023-05-10T00:59:16;13.50;38.00
843;DHT22;407;48.884;9.126;2023-05-10T01:01:44;13.40;44.80
843;DHT22;407;48.884;9.126;2023-05-10T01:04:11;13.40;40.10
843;DHT22;407;48.884;9.126;2023-05-10T01:06:39;13.40;38.70
843;DHT22;407;48.884;9.126;2023-05-10T01:09:04;13.40;46.50
843;DHT22;407;48.884;9.126;2023-05-10T01:11:37;13.50;43.10
843;DHT22;407;48.884;9.126;2023-05-10T01:14:03;13.50;32.60
843;DHT22;407;48.884;9.126;2023-05-10T01:16:37;13.50;12.90
843;DHT22;407;48.884;9.126;2023-05-10T01:19:05;13.50;20.70
843;DHT22;407;48.884;9.126;2023-05-10T01:24:14;13.60;9.90
843;DHT22;407;48.884;9.126;2023-05-10T01:33:16;13.50;10.40
843;DHT22;407;48.884;9.126;2023-05-10T01:35:55;13.50;1.00
843;DHT22;407;48.884;9.126;2023-05-10T01:38:38;13.50;1.80
843;DHT22;407;48.884;9.126;2023-05-10T01:43:57;13.40;4.90
843;DHT22;407;48.884;9.126;2023-05-10T01:46:43;13.30;9.40
843;DHT22;407;48.884;9.126;2023-05-10T01:49:29;13.40;16.80
843;DHT22;407;48.884;9.126;2023-05-10T01:52:04;13.40;12.20
843;DHT22;407;48.884;9.126;2023-05-10T01:54:33;13.40;7.70
843;DHT22;407;48.884;9.126;2023-05-10T01:57:05;13.50;1.00
843;DHT22;407;48.884;9.126;2023-05-10T01:59:34;13.50;1.00
843;DHT22;407;48.884;9.126;2023-05-10T02:02:07;13.40;2.10
843;DHT22;407;48.884;9.126;2023-05-10T02:04:35;13.40;13.10
843;DHT22;407;48.884;9.126;2023-05-10T02:07:03;13.40;9.10
843;DHT22;407;48.884;9.126;2023-05-10T02:09:32;13.30;12.50
843;DHT22;407;48.884;9.126;2023-05-10T02:12:00;13.30;22.00
843;DHT22;407;48.884;9.126;2023-05-10T02:14:30;13.40;17.20
843;DHT22;407;48.884;9.126;2023-05-10T02:16:56;13.20;32.00
843;DHT22;407;48.884;9.126;2023-05-10T02:19:24;13.20;24.20
843;DHT22;407;48.884;9.126;2023-05-10T02:21:51;13.20;17.00
843;DHT22;407;48.884;9.126;2023-05-10T02:24:17;13.10;20.80
843;DHT22;407;48.884;9.126;2023-05-10T02:26:45;13.30;27.90
843;DHT22;407;48.884;9.126;2023-05-10T02:29:13;13.30;11.60
843;DHT22;407;48.884;9.126;2023-05-10T02:31:40;13.40;1.00
843;DHT22;407;48.884;9.126;2023-05-10T02:34:10;13.30;10.30
843;DHT22;407;48.884;9.126;2023-05-10T02:36:38;13.30;12.40
843;DHT22;407;48.884;9.126;2023-05-10T02:39:05;13.30;9.10
843;DHT22;407;48.884;9.126;2023-05-10T02:41:35;13.30;14.80
843;DHT22;407;48.884;9.126;2023-05-10T02:44:02;13.40;8.70
843;DHT22;407;48.884;9.126;2023-05-10T02:46:29;13.40;4.90
843;DHT22;407;48.884;9.126;2023-05-10T02:48:55;13.30;23.50
843;DHT22;407;48.884;9.126;2023-05-10T02:51:25;13.30;17.20
843;DHT22;407;48.884;9.126;2023-05-10T02:53:53;13.40;19.30
843;DHT22;407;48.884;9.126;2023-05-10T02:56:25;13.40;3.10
843;DHT22;407;48.884;9.126;2023-05-10T02:58:53;13.40;1.00
843;DHT22;407;48.884;9.126;2023-05-10T03:01:20;13.40;18.10
843;DHT22;407;48.884;9.126;2023-05-10T03:03:46;13.40;11.80
843;DHT22;407;48.884;9.126;2023-05-10T03:06:12;13.50;1.10
843;DHT22;407;48.884;9.126;2023-05-10T03:08:37;13.50;1.00
843;DHT22;407;48.884;9.126;2023-05-10T03:14:02;13.50;1.00
843;DHT22;407;48.884;9.126;2023-05-10T03:16:41;13.50;1.00
843;DHT22;407;48.884;9.126;2023-05-10T03:19:26;13.40;1.00
843;DHT22;407;48.884;9.126;2023-05-10T03:21:53;13.40;15.80
843;DHT22;407;48.884;9.126;2023-05-10T03:24:23;13.50;1.00
843;DHT22;407;48.884;9.126;2023-05-10T03:26:49;13.40;1.00
843;DHT22;407;48.884;9.126;2023-05-10T03:29:16;13.40;1.00
843;DHT22;407;48.884;9.126;2023-05-10T03:31:42;13.50;1.00
843;DHT22;407;48.884;9.126;2023-05-10T03:34:08;13.60;1.00
843;DHT22;407;48.884;9.126;2023-05-10T03:36:34;13.60;1.00
843;DHT22;407;48.884;9.126;2023-05-10T03:38:59;13.50;1.30
843;DHT22;407;48.884;9.126;2023-05-10T03:41:25;13.70;1.00
843;DHT22;407;48.884;9.126;2023-05-10T03:43:51;13.60;1.00
843;DHT22;407;48.884;9.126;2023-05-10T03:46:17;13.70;1.00
843;DHT22;407;48.884;9.126;2023-05-10T03:48:42;13.70;1.00
843;DHT22;407;48.884;9.126;2023-05-10T03:51:08;13.60;1.00
843;DHT22;407;48.884;9.126;2023-05-10T03:53:34;13.50;1.00
843;DHT22;407;48.884;9.126;2023-05-10T03:55:59;13.70;1.00
843;DHT22;407;48.884;9.126;2023-05-10T03:58:25;13.60;1.00
843;DHT22;407;48.884;9.126;2023-05-10T04:00:51;13.70;3.50
843;DHT22;407;48.884;9.126;2023-05-10T04:03:17;13.70;1.00
843;DHT22;407;48.884;9.126;2023-05-10T04:05:43;13.80;1.00
843;DHT22;407;48.884;9.126;2023-05-10T04:08:08;13.70;1.00
843;DHT22;407;48.884;9.126;2023-05-10T04:10:34;13.80;1.00
843;DHT22;407;48.884;9.126;2023-05-10T04:13:00;13.70;1.00
843;DHT22;407;48.884;9.126;2023-05-10T04:15:26;13.70;1.00
843;DHT22;407;48.884;9.126;2023-05-10T04:17:51;13.70;1.00
843;DHT22;407;48.884;9.126;2023-05-10T04:20:17;13.70;1.00
843;DHT22;407;48.884;9.126;2023-05-10T04:22:43;13.60;1.00
843;DHT22;407;48.884;9.126;2023-05-10T04:25:09;13.60;1.00
843;DHT22;407;48.884;9.126;2023-05-10T04:27:34;13.70;1.00
843;DHT22;407;48.884;9.126;2023-05-10T04:30:00;13.70;1.00
843;DHT22;407;48.884;9.126;2023-05-10T04:32:26;13.80;1.00
843;DHT22;407;48.884;9.126;2023-05-10T04:34:51;13.80;1.00
843;DHT22;407;48.884;9.126;2023-05-10T04:37:17;13.80;1.00
843;DHT22;407;48.884;9.126;2023-05-10T04:39:43;13.70;1.00
843;DHT22;407;48.884;9.126;2023-05-10T04:42:09;13.60;1.00
843;DHT22;407;48.884;9.126;2023-05-10T04:44:35;13.60;1.00
843;DHT22;407;48.884;9.126;2023-05-10T04:47:01;13.60;1.00
843;DHT22;407;48.884;9.126;2023-05-10T04:49:28;13.60;1.00
843;DHT22;407;48.884;9.126;2023-05-10T04:51:54;13.70;1.00
843;DHT22;407;48.884;9.126;2023-05-10T04:54:20;13.90;1.00
843;DHT22;407;48.884;9.126;2023-05-10T04:56:46;13.60;1.00
843;DHT22;407;48.884;9.126;2023-05-10T04:59:11;13.60;1.00
843;DHT22;407;48.884;9.126;2023-05-10T05:01:37;13.70;1.00
843;DHT22;407;48.884;9.126;2023-05-10T05:04:03;13.60;1.00
843;DHT22;407;48.884;9.126;2023-05-10T05:06:28;13.80;1.00
843;DHT22;407;48.884;9.126;2023-05-10T05:08:54;13.60;1.00
843;DHT22;407;48.884;9.126;2023-05-10T05:11:19;13.90;1.00
843;DHT22;407;48.884;9.126;2023-05-10T05:13:46;14.10;1.00
843;DHT22;407;48.884;9.126;2023-05-10T05:16:11;14.20;1.00
843;DHT22;407;48.884;9.126;2023-05-10T05:18:37;14.20;1.00
843;DHT22;407;48.884;9.126;2023-05-10T05:21:03;14.30;1.00
843;DHT22;407;48.884;9.126;2023-05-10T05:23:28;14.50;1.00
843;DHT22;407;48.884;9.126;2023-05-10T05:25:54;14.50;1.00
843;DHT22;407;48.884;9.126;2023-05-10T05:28:20;14.60;1.00
843;DHT22;407;48.884;9.126;2023-05-10T05:30:46;14.70;1.00
843;DHT22;407;48.884;9.126;2023-05-10T05:33:13;14.80;1.00
843;DHT22;407;48.884;9.126;2023-05-10T05:35:39;14.70;1.00
843;DHT22;407;48.884;9.126;2023-05-10T05:38:04;14.70;1.00
843;DHT22;407;48.884;9.126;2023-05-10T05:40:31;14.60;1.00
843;DHT22;407;48.884;9.126;2023-05-10T05:42:57;14.50;1.00
843;DHT22;407;48.884;9.126;2023-05-10T05:45:22;14.50;1.00
843;DHT22;407;48.884;9.126;2023-05-10T05:47:48;14.60;1.00
843;DHT22;407;48.884;9.126;2023-05-10T05:50:13;14.70;1.00
843;DHT22;407;48.884;9.126;2023-05-10T05:52:39;14.60;1.00
843;DHT22;407;48.884;9.126;2023-05-10T05:55:05;14.60;1.00
843;DHT22;407;48.884;9.126;2023-05-10T05:57:31;14.70;1.00
843;DHT22;407;48.884;9.126;2023-05-10T05:59:56;14.80;1.00
843;DHT22;407;48.884;9.126;2023-05-10T06:02:22;14.90;1.00
843;DHT22;407;48.884;9.126;2023-05-10T06:04:48;15.10;1.00
843;DHT22;407;48.884;9.126;2023-05-10T06:07:13;15.00;1.00
843;DHT22;407;48.884;9.126;2023-05-10T06:09:39;15.00;1.00
843;DHT22;407;48.884;9.126;2023-05-10T06:12:04;15.20;1.00
843;DHT22;407;48.884;9.126;2023-05-10T06:14:30;15.00;1.00
843;DHT22;407;48.884;9.126;2023-05-10T06:16:56;15.10;1.00
843;DHT22;407;48.884;9.126;2023-05-10T06:19:21;15.20;1.00
843;DHT22;407;48.884;9.126;2023-05-10T06:21:47;15.00;1.00
843;DHT22;407;48.884;9.126;2023-05-10T06:24:12;14.70;1.00
843;DHT22;407;48.884;9.126;2023-05-10T06:26:38;14.70;1.00
843;DHT22;407;48.884;9.126;2023-05-10T06:29:04;14.80;1.00
843;DHT22;407;48.884;9.126;2023-05-10T06:31:30;14.90;1.00
843;DHT22;407;48.884;9.126;2023-05-10T06:33:56;14.70;1.00
843;DHT22;407;48.884;9.126;2023-05-10T06:36:21;14.80;1.00
843;DHT22;407;48.884;9.126;2023-05-10T06:38:47;14.90;1.00
843;DHT22;407;48.884;9.126;2023-05-10T06:41:14;15.00;1.00
843;DHT22;407;48.884;9.126;2023-05-10T06:43:39;15.10;1.00
843;DHT22;407;48.884;9.126;2023-05-10T06:46:06;15.30;1.00
843;DHT22;407;48.884;9.126;2023-05-10T06:48:32;15.40;1.00
843;DHT22;407;48.884;9.126;2023-05-10T06:50:58;15.30;1.00
843;DHT22;407;48.884;9.126;2023-05-10T06:53:23;15.40;1.00
843;DHT22;407;48.884;9.126;2023-05-10T06:55:49;15.60;99.90
843;DHT22;407;48.884;9.126;2023-05-10T06:58:15;16.00;99.90
843;DHT22;407;48.884;9.126;2023-05-10T07:00:41;16.20;99.90
843;DHT22;407;48.884;9.126;2023-05-10T07:03:09;16.30;1.00
843;DHT22;407;48.884;9.126;2023-05-10T07:05:35;16.30;1.00
843;DHT22;407;48.884;9.126;2023-05-10T07:08:01;16.30;1.00
843;DHT22;407;48.884;9.126;2023-05-10T07:10:26;16.00;1.00
843;DHT22;407;48.884;9.126;2023-05-10T07:12:52;16.20;60.20
843;DHT22;407;48.884;9.126;2023-05-10T07:15:18;16.40;1.00
843;DHT22;407;48.884;9.126;2023-05-10T07:17:44;16.50;99.90
843;DHT22;407;48.884;9.126;2023-05-10T07:20:10;16.40;99.90
843;DHT22;407;48.884;9.126;2023-05-10T07:22:35;16.50;1.00
843;DHT22;407;48.884;9.126;2023-05-10T07:25:01;16.30;99.90
843;DHT22;407;48.884;9.126;2023-05-10T07:27:28;16.20;1.00
843;DHT22;407;48.884;9.126;2023-05-10T07:29:54;16.30;99.90
843;DHT22;407;48.884;9.126;2023-05-10T07:32:20;16.30;99.90
843;DHT22;407;48.884;9.126;2023-05-10T07:34:46;16.50;4.50
843;DHT22;407;48.884;9.126;2023-05-10T07:37:12;16.80;1.00
843;DHT22;407;48.884;9.126;2023-05-10T07:39:37;17.00;99.90
843;DHT22;407;48.884;9.126;2023-05-10T07:42:03;16.70;27.60
843;DHT22;407;48.884;9.126;2023-05-10T07:44:29;16.70;99.90
843;DHT22;407;48.884;9.126;2023-05-10T07:46:54;16.50;99.90
843;DHT22;407;48.884;9.126;2023-05-10T07:49:21;16.40;99.90
843;DHT22;407;48.884;9.126;2023-05-10T07:51:46;16.40;1.00
843;DHT22;407;48.884;9.126;2023-05-10T07:54:13;16.20;1.00
843;DHT22;407;48.884;9.126;2023-05-10T07:56:39;16.00;99.90
843;DHT22;407;48.884;9.126;2023-05-10T07:59:08;16.00;1.00
843;DHT22;407;48.884;9.126;2023-05-10T08:01:34;16.10;1.00
843;DHT22;407;48.884;9.126;2023-05-10T08:04:00;16.10;1.00
843;DHT22;407;48.884;9.126;2023-05-10T08:06:27;15.90;1.00
843;DHT22;407;48.884;9.126;2023-05-10T08:08:55;16.10;99.90
843;DHT22;407;48.884;9.126;2023-05-10T08:11:20;16.00;1.00
843;DHT22;407;48.884;9.126;2023-05-10T08:13:47;16.00;1.00
843;DHT22;407;48.884;9.126;2023-05-10T08:16:13;16.10;1.00
843;DHT22;407;48.884;9.126;2023-05-10T08:18:39;16.00;1.00
843;DHT22;407;48.884;9.126;2023-05-10T08:21:05;16.10;1.00
843;DHT22;407;48.884;9.126;2023-05-10T08:23:30;16.20;94.60
843;DHT22;407;48.884;9.126;2023-05-10T08:25:56;16.20;1.00
843;DHT22;407;48.884;9.126;2023-05-10T08:28:22;16.20;1.00
843;DHT22;407;48.884;9.126;2023-05-10T08:30:49;16.30;1.00
843;DHT22;407;48.884;9.126;2023-05-10T08:33:15;16.20;99.90
843;DHT22;407;48.884;9.126;2023-05-10T08:35:40;16.10;99.90
843;DHT22;407;48.884;9.126;2023-05-10T08:38:06;16.10;78.50
843;DHT22;407;48.884;9.126;2023-05-10T08:40:32;16.00;99.90
843;DHT22;407;48.884;9.126;2023-05-10T08:43:09;16.00;14.30
843;DHT22;407;48.884;9.126;2023-05-10T08:45:44;15.90;1.00
843;DHT22;407;48.884;9.126;2023-05-10T08:48:14;16.00;99.90
843;DHT22;407;48.884;9.126;2023-05-10T08:50:41;15.90;5.90
843;DHT22;407;48.884;9.126;2023-05-10T08:53:10;15.90;99.90
843;DHT22;407;48.884;9.126;2023-05-10T08:55:37;16.30;99.90
843;DHT22;407;48.884;9.126;2023-05-10T08:58:04;16.50;1.00
843;DHT22;407;48.884;9.126;2023-05-10T09:00:31;16.60;1.00
843;DHT22;407;48.884;9.126;2023-05-10T09:02:58;16.30;99.90
843;DHT22;407;48.884;9.126;2023-05-10T09:05:24;16.10;99.90
843;DHT22;407;48.884;9.126;2023-05-10T09:07:49;16.30;1.00
843;DHT22;407;48.884;9.126;2023-05-10T09:10:16;16.90;1.00
843;DHT22;407;48.884;9.126;2023-05-10T09:12:41;17.00;99.90
843;DHT22;407;48.884;9.126;2023-05-10T09:15:10;17.20;99.90
843;DHT22;407;48.884;9.126;2023-05-10T09:17:36;15.90;99.90
843;DHT22;407;48.884;9.126;2023-05-10T09:20:04;17.20;99.90
843;DHT22;407;48.884;9.126;2023-05-10T09:22:33;16.90;99.90
843;DHT22;407;48.884;9.126;2023-05-10T09:25:13;17.10;99.90
843;DHT22;407;48.884;9.126;2023-05-10T09:27:40;17.20;99.90
843;DHT22;407;48.884;9.126;2023-05-10T09:30:07;17.10;99.90
843;DHT22;407;48.884;9.126;2023-05-10T09:32:45;17.00;99.90
843;DHT22;407;48.884;9.126;2023-05-10T09:35:13;17.20;99.90
843;DHT22;407;48.884;9.126;2023-05-10T09:37:40;17.40;99.90
843;DHT22;407;48.884;9.126;2023-05-10T09:40:07;17.40;99.90
843;DHT22;407;48.884;9.126;2023-05-10T09:42:34;17.30;97.90
843;DHT22;407;48.884;9.126;2023-05-10T09:45:09;17.40;99.90
843;DHT22;407;48.884;9.126;2023-05-10T09:47:35;17.40;99.90
843;DHT22;407;48.884;9.126;2023-05-10T09:50:02;17.50;99.90
843;DHT22;407;48.884;9.126;2023-05-10T09:52:30;17.50;99.90
843;DHT22;407;48.884;9.126;2023-05-10T09:54:55;17.30;99.90
843;DHT22;407;48.884;9.126;2023-05-10T09:57:22;16.80;99.90
843;DHT22;407;48.884;9.126;2023-05-10T09:59:48;16.60;99.90
843;DHT22;407;48.884;9.126;2023-05-10T10:02:15;16.70;99.90
843;DHT22;407;48.884;9.126;2023-05-10T10:04:41;17.00;99.90
843;DHT22;407;48.884;9.126;2023-05-10T10:07:07;15.90;99.90
843;DHT22;407;48.884;9.126;2023-05-10T10:09:33;17.30;99.90
843;DHT22;407;48.884;9.126;2023-05-10T10:12:00;17.20;99.90
843;DHT22;407;48.884;9.126;2023-05-10T10:14:26;17.10;99.90
843;DHT22;407;48.884;9.126;2023-05-10T10:16:52;16.90;99.90
843;DHT22;407;48.884;9.126;2023-05-10T10:19:21;17.00;99.90
843;DHT22;407;48.884;9.126;2023-05-10T10:21:50;17.10;99.90
843;DHT22;407;48.884;9.126;2023-05-10T10:24:16;16.90;99.90
843;DHT22;407;48.884;9.126;2023-05-10T10:26:42;16.70;99.90
843;DHT22;407;48.884;9.126;2023-05-10T10:29:49;16.70;99.90
843;DHT22;407;48.884;9.126;2023-05-10T10:32:26;16.90;82.90
843;DHT22;407;48.884;9.126;2023-05-10T10:34:54;17.40;95.10
843;DHT22;407;48.884;9.126;2023-05-10T10:37:21;17.70;54.70
843;DHT22;407;48.884;9.126;2023-05-10T10:39:48;17.50;46.60
843;DHT22;407;48.884;9.126;2023-05-10T10:42:43;17.20;67.40
843;DHT22;407;48.884;9.126;2023-05-10T10:45:13;17.10;54.40
843;DHT22;407;48.884;9.126;2023-05-10T10:47:38;16.90;76.50
843;DHT22;407;48.884;9.126;2023-05-10T10:50:06;17.00;52.50
843;DHT22;407;48.884;9.126;2023-05-10T10:52:34;16.80;87.10
843;DHT22;407;48.884;9.126;2023-05-10T11:00:28;17.20;17.10
843;DHT22;407;48.884;9.126;2023-05-10T11:02:58;17.00;5.20
843;DHT22;407;48.884;9.126;2023-05-10T11:08:15;16.90;1.00
843;DHT22;407;48.884;9.126;2023-05-10T11:21:19;18.40;1.00
843;DHT22;407;48.884;9.126;2023-05-10T11:23:55;18.00;1.00
843;DHT22;407;48.884;9.126;2023-05-10T11:26:25;18.30;1.00
843;DHT22;407;48.884;9.126;2023-05-10T11:28:53;18.50;1.00
843;DHT22;407;48.884;9.126;2023-05-10T11:31:24;18.10;1.00
843;DHT22;407;48.884;9.126;2023-05-10T11:33:56;18.20;1.00
843;DHT22;407;48.884;9.126;2023-05-10T11:36:27;18.30;1.00
843;DHT22;407;48.884;9.126;2023-05-10T11:38:55;18.20;1.00
843;DHT22;407;48.884;9.126;2023-05-10T11:41:22;18.20;1.00
843;DHT22;407;48.884;9.126;2023-05-10T11:43:55;17.90;1.00
843;DHT22;407;48.884;9.126;2023-05-10T11:46:25;17.60;1.00
843;DHT22;407;48.884;9.126;2023-05-10T11:48:53;17.50;1.00
843;DHT22;407;48.884;9.126;2023-05-10T11:51:23;17.50;1.00
843;DHT22;407;48.884;9.126;2023-05-10T11:53:52;17.50;1.00
843;DHT22;407;48.884;9.126;2023-05-10T11:56:18;17.70;1.00
843;DHT22;407;48.884;9.126;2023-05-10T11:58:43;17.80;1.00
843;DHT22;407;48.884;9.126;2023-05-10T12:01:10;17.70;1.00
843;DHT22;407;48.884;9.126;2023-05-10T12:03:36;17.60;1.00
843;DHT22;407;48.884;9.126;2023-05-10T12:06:03;17.50;1.00
843;DHT22;407;48.884;9.126;2023-05-10T12:08:29;17.50;1.00
843;DHT22;407;48.884;9.126;2023-05-10T12:11:16;17.40;1.00
843;DHT22;407;48.884;9.126;2023-05-10T12:13:44;17.00;1.00
843;DHT22;407;48.884;9.126;2023-05-10T12:16:24;16.90;1.00
843;DHT22;407;48.884;9.126;2023-05-10T12:18:51;16.70;1.00
843;DHT22;407;48.884;9.126;2023-05-10T12:21:19;16.80;1.00
843;DHT22;407;48.884;9.126;2023-05-10T12:23:46;16.90;1.00
843;DHT22;407;48.884;9.126;2023-05-10T12:26:12;16.70;1.00
843;DHT22;407;48.884;9.126;2023-05-10T12:28:38;16.60;1.00
843;DHT22;407;48.884;9.126;2023-05-10T12:31:07;16.60;1.00
843;DHT22;407;48.884;9.126;2023-05-10T12:33:41;16.70;1.00
843;DHT22;407;48.884;9.126;2023-05-10T12:36:09;16.90;1.00
843;DHT22;407;48.884;9.126;2023-05-10T12:38:39;17.10;1.00
843;DHT22;407;48.884;9.126;2023-05-10T12:41:12;17.10;1.00
843;DHT22;407;48.884;9.126;2023-05-10T12:43:39;17.40;1.00
843;DHT22;407;48.884;9.126;2023-05-10T12:46:12;17.50;1.00
843;DHT22;407;48.884;9.126;2023-05-10T12:48:39;17.50;1.00
843;DHT22;407;48.884;9.126;2023-05-10T12:51:05;17.60;1.00
843;DHT22;407;48.884;9.126;2023-05-10T12:53:34;17.70;1.00
843;DHT22;407;48.884;9.126;2023-05-10T12:56:00;17.60;1.00
843;DHT22;407;48.884;9.126;2023-05-10T12:58:26;17.70;1.00
843;DHT22;407;48.884;9.126;2023-05-10T13:00:52;17.60;1.00
843;DHT22;407;48.884;9.126;2023-05-10T13:03:18;17.50;1.00
843;DHT22;407;48.884;9.126;2023-05-10T13:05:44;17.50;1.00
843;DHT22;407;48.884;9.126;2023-05-10T13:08:09;18.00;1.00
843;DHT22;407;48.884;9.126;2023-05-10T13:10:36;18.30;1.00
843;DHT22;407;48.884;9.126;2023-05-10T13:13:02;18.00;1.00
843;DHT22;407;48.884;9.126;2023-05-10T13:15:28;17.90;1.00
843;DHT22;407;48.884;9.126;2023-05-10T13:17:54;18.10;1.00
843;DHT22;407;48.884;9.126;2023-05-10T13:20:19;18.10;1.00
843;DHT22;407;48.884;9.126;2023-05-10T13:22:45;18.00;1.00
843;DHT22;407;48.884;9.126;2023-05-10T13:25:11;18.00;1.00
843;DHT22;407;48.884;9.126;2023-05-10T13:27:40;18.00;1.00
843;DHT22;407;48.884;9.126;2023-05-10T13:30:09;18.00;1.00
843;DHT22;407;48.884;9.126;2023-05-10T13:32:36;18.30;1.00
843;DHT22;407;48.884;9.126;2023-05-10T13:35:04;18.80;1.00
843;DHT22;407;48.884;9.126;2023-05-10T13:37:32;18.50;1.00
843;DHT22;407;48.884;9.126;2023-05-10T13:40:00;18.20;1.00
843;DHT22;407;48.884;9.126;2023-05-10T13:42:26;18.30;1.00
843;DHT22;407;48.884;9.126;2023-05-10T13:44:52;18.20;1.00
843;DHT22;407;48.884;9.126;2023-05-10T13:47:18;18.20;1.00
843;DHT22;407;48.884;9.126;2023-05-10T13:49:43;17.80;1.00
843;DHT22;407;48.884;9.126;2023-05-10T13:52:09;17.70;1.00
843;DHT22;407;48.884;9.126;2023-05-10T13:54:36;17.80;1.00
843;DHT22;407;48.884;9.126;2023-05-10T13:57:02;18.20;1.00
843;DHT22;407;48.884;9.126;2023-05-10T13:59:28;18.40;1.00
843;DHT22;407;48.884;9.126;2023-05-10T14:01:54;18.30;1.00
843;DHT22;407;48.884;9.126;2023-05-10T14:04:20;18.20;1.00
843;DHT22;407;48.884;9.126;2023-05-10T14:06:46;18.20;1.00
843;DHT22;407;48.884;9.126;2023-05-10T14:09:11;18.30;1.00
843;DHT22;407;48.884;9.126;2023-05-10T14:11:37;18.50;1.00
843;DHT22;407;48.884;9.126;2023-05-10T14:14:07;18.40;1.00
843;DHT22;407;48.884;9.126;2023-05-10T14:16:33;18.30;1.00
843;DHT22;407;48.884;9.126;2023-05-10T14:18:59;17.90;1.00
843;DHT22;407;48.884;9.126;2023-05-10T14:21:24;18.10;1.00
843;DHT22;407;48.884;9.126;2023-05-10T14:23:50;18.20;1.00
843;DHT22;407;48.884;9.126;2023-05-10T14:26:16;17.90;1.00
843;DHT22;407;48.884;9.126;2023-05-10T14:28:41;17.90;1.00
843;DHT22;407;48.884;9.126;2023-05-10T14:31:07;17.90;1.00
843;DHT22;407;48.884;9.126;2023-05-10T14:33:32;17.50;1.00
843;DHT22;407;48.884;9.126;2023-05-10T14:35:58;17.70;1.00
843;DHT22;407;48.884;9.126;2023-05-10T14:38:25;17.70;1.00
843;DHT22;407;48.884;9.126;2023-05-10T14:40:51;17.90;1.00
843;DHT22;407;48.884;9.126;2023-05-10T14:43:17;18.10;1.00
843;DHT22;407;48.884;9.126;2023-05-10T14:45:43;18.10;1.00
843;DHT22;407;48.884;9.126;2023-05-10T14:48:08;18.10;1.00
843;DHT22;407;48.884;9.126;2023-05-10T14:50:37;18.10;1.00
843;DHT22;407;48.884;9.126;2023-05-10T14:53:04;18.00;1.00
843;DHT22;407;48.884;9.126;2023-05-10T14:55:29;18.00;1.00
843;DHT22;407;48.884;9.126;2023-05-10T14:57:55;17.90;1.00
843;DHT22;407;48.884;9.126;2023-05-10T15:00:21;18.10;1.00
843;DHT22;407;48.884;9.126;2023-05-10T15:02:47;18.30;1.00
843;DHT22;407;48.884;9.126;2023-05-10T15:05:13;18.30;1.00
843;DHT22;407;48.884;9.126;2023-05-10T15:07:39;18.60;1.00
843;DHT22;407;48.884;9.126;2023-05-10T15:10:05;18.60;1.00
843;DHT22;407;48.884;9.126;2023-05-10T15:12:31;18.10;1.00
843;DHT22;407;48.884;9.126;2023-05-10T15:14:57;18.00;1.00
843;DHT22;407;48.884;9.126;2023-05-10T15:17:22;17.70;1.00
843;DHT22;407;48.884;9.126;2023-05-10T15:19:48;18.00;1.00
843;DHT22;407;48.884;9.126;2023-05-10T15:22:14;17.80;99.90
843;DHT22;407;48.884;9.126;2023-05-10T15:24:40;17.80;99.90
843;DHT22;407;48.884;9.126;2023-05-10T15:27:06;18.10;99.90
843;DHT22;407;48.884;9.126;2023-05-10T15:29:31;18.00;99.90
843;DHT22;407;48.884;9.126;2023-05-10T15:31:57;17.90;99.90
843;DHT22;407;48.884;9.126;2023-05-10T15:34:23;18.00;99.90
843;DHT22;407;48.884;9.126;2023-05-10T15:36:55;18.00;99.90
843;DHT22;407;48.884;9.126;2023-05-10T15:39:21;18.00;99.90
843;DHT22;407;48.884;9.126;2023-05-10T15:41:47;17.90;99.90
843;DHT22;407;48.884;9.126;2023-05-10T15:44:13;18.00;99.90
843;DHT22;407;48.884;9.126;2023-05-10T15:46:38;17.90;99.90
843;DHT22;407;48.884;9.126;2023-05-10T15:49:04;18.00;99.90
843;DHT22;407;48.884;9.126;2023-05-10T15:51:31;17.80;99.90
843;DHT22;407;48.884;9.126;2023-05-10T15:53:58;17.70;99.90
843;DHT22;407;48.884;9.126;2023-05-10T15:56:23;17.90;99.90
843;DHT22;407;48.884;9.126;2023-05-10T15:58:49;17.90;99.90
843;DHT22;407;48.884;9.126;2023-05-10T16:01:15;17.70;99.90
843;DHT22;407;48.884;9.126;2023-05-10T16:03:40;17.60;99.90
843;DHT22;407;48.884;9.126;2023-05-10T16:06:07;17.60;99.90
843;DHT22;407;48.884;9.126;2023-05-10T16:08:32;17.50;99.90
843;DHT22;407;48.884;9.126;2023-05-10T16:10:59;17.50;99.90
843;DHT22;407;48.884;9.126;2023-05-10T16:13:25;17.70;99.90
843;DHT22;407;48.884;9.126;2023-05-10T16:15:51;17.80;99.90
843;DHT22;407;48.884;9.126;2023-05-10T16:18:18;17.70;99.90
843;DHT22;407;48.884;9.126;2023-05-10T16:20:45;17.50;99.90
843;DHT22;407;48.884;9.126;2023-05-10T16:23:11;17.40;99.90
843;DHT22;407;48.884;9.126;2023-05-10T16:25:38;17.40;99.90
843;DHT22;407;48.884;9.126;2023-05-10T16:28:04;17.40;99.90
843;DHT22;407;48.884;9.126;2023-05-10T16:30:29;17.50;99.90
843;DHT22;407;48.884;9.126;2023-05-10T16:32:56;17.50;99.90
843;DHT22;407;48.884;9.126;2023-05-10T16:35:21;17.50;99.90
843;DHT22;407;48.884;9.126;2023-05-10T16:37:48;17.30;99.90
843;DHT22;407;48.884;9.126;2023-05-10T16:40:15;16.90;99.90
843;DHT22;407;48.884;9.126;2023-05-10T16:42:42;17.40;99.90
843;DHT22;407;48.884;9.126;2023-05-10T16:45:08;17.40;99.90
843;DHT22;407;48.884;9.126;2023-05-10T16:47:35;17.40;99.90
843;DHT22;407;48.884;9.126;2023-05-10T16:50:02;17.50;99.90
843;DHT22;407;48.884;9.126;2023-05-10T16:52:28;17.50;99.90
843;DHT22;407;48.884;9.126;2023-05-10T16:54:54;17.60;99.90
843;DHT22;407;48.884;9.126;2023-05-10T16:57:20;17.60;99.90
843;DHT22;407;48.884;9.126;2023-05-10T16:59:46;17.70;99.90
843;DHT22;407;48.884;9.126;2023-05-10T17:02:12;17.60;99.90
843;DHT22;407;48.884;9.126;2023-05-10T17:04:37;17.60;99.90
843;DHT22;407;48.884;9.126;2023-05-10T17:07:03;17.60;99.90
843;DHT22;407;48.884;9.126;2023-05-10T17:09:29;17.50;99.90
843;DHT22;407;48.884;9.126;2023-05-10T17:11:54;17.40;99.90
843;DHT22;407;48.884;9.126;2023-05-10T17:14:20;17.40;99.90
843;DHT22;407;48.884;9.126;2023-05-10T17:16:47;17.40;99.90